JZA263 CYYZ-CYXU
Flight info
| Callsign | JZA263 |
|---|---|
| Flight time | 0h 29m |
| Altitude | 16000 |
| Route | PEMBA6 DERLO |
| Aircraft | DH8D/M-SDE2E3FGRY/H |
Departure
| Time | 2026-05-03 23:58 |
|---|---|
| Airport | Toronto Pearson International Airport (CYYZ) |
Arrival
| Time | 2026-05-04 00:27 |
|---|---|
| Airport | London International Airport (CYXU) |
| Time | Latitude | Longitude | Altitude | Speed | Heading |
|---|---|---|---|---|---|
| 2026-05-03 23:25 | 43.68790 | -79.62244 | 567 ft | 0 kts | 83° |
| 2026-05-03 23:49 | 43.68789 | -79.62256 | 567 ft | 2 kts | 81° |
| 2026-05-03 23:49 | 43.68786 | -79.62277 | 567 ft | 2 kts | 82° |
| 2026-05-03 23:49 | 43.68784 | -79.62297 | 567 ft | 2 kts | 81° |
| 2026-05-03 23:50 | 43.68782 | -79.62312 | 567 ft | 0 kts | 82° |
| 2026-05-03 23:50 | 43.68782 | -79.62316 | 567 ft | 0 kts | 83° |
| 2026-05-03 23:52 | 43.68777 | -79.62302 | 567 ft | 2 kts | 151° |
| 2026-05-03 23:52 | 43.68758 | -79.62315 | 567 ft | 3 kts | 221° |
| 2026-05-03 23:53 | 43.68727 | -79.62357 | 566 ft | 6 kts | 229° |
| 2026-05-03 23:53 | 43.68701 | -79.62405 | 566 ft | 8 kts | 233° |
| 2026-05-03 23:53 | 43.68669 | -79.62467 | 566 ft | 8 kts | 235° |
| 2026-05-03 23:53 | 43.68630 | -79.62542 | 566 ft | 8 kts | 232° |
| 2026-05-03 23:54 | 43.68582 | -79.62614 | 566 ft | 10 kts | 218° |
| 2026-05-03 23:54 | 43.68508 | -79.62643 | 566 ft | 12 kts | 217° |
| 2026-05-03 23:54 | 43.68473 | -79.62727 | 565 ft | 9 kts | 279° |
| 2026-05-03 23:54 | 43.68532 | -79.62822 | 563 ft | 17 kts | 316° |
| 2026-05-03 23:55 | 43.68626 | -79.62942 | 560 ft | 17 kts | 316° |
| 2026-05-03 23:55 | 43.68721 | -79.63068 | 558 ft | 21 kts | 316° |
| 2026-05-03 23:55 | 43.68833 | -79.63216 | 554 ft | 22 kts | 314° |
| 2026-05-03 23:55 | 43.68939 | -79.63353 | 552 ft | 19 kts | 316° |
| 2026-05-03 23:56 | 43.69053 | -79.63504 | 549 ft | 23 kts | 316° |
| 2026-05-03 23:56 | 43.69155 | -79.63476 | 550 ft | 15 kts | 45° |
| 2026-05-03 23:56 | 43.69246 | -79.63425 | 550 ft | 14 kts | 1° |
| 2026-05-03 23:56 | 43.69340 | -79.63426 | 550 ft | 12 kts | 345° |
| 2026-05-03 23:57 | 43.69397 | -79.63516 | 550 ft | 14 kts | 262° |
| 2026-05-03 23:57 | 43.69311 | -79.63654 | 549 ft | 29 kts | 227° |
| 2026-05-03 23:57 | 43.69044 | -79.64043 | 546 ft | 75 kts | 226° |
| 2026-05-03 23:57 | 43.68607 | -79.64673 | 546 ft | 102 kts | 226° |
| 2026-05-03 23:58 | 43.68044 | -79.65488 | 586 ft | 136 kts | 227° |
| 2026-05-03 23:58 | 43.67376 | -79.66442 | 1238 ft | 138 kts | 231° |
| 2026-05-03 23:58 | 43.67034 | -79.67641 | 1835 ft | 140 kts | 274° |
| 2026-05-03 23:58 | 43.67269 | -79.68966 | 2364 ft | 153 kts | 282° |
| 2026-05-03 23:59 | 43.67586 | -79.70459 | 2764 ft | 168 kts | 281° |
| 2026-05-03 23:59 | 43.67848 | -79.72060 | 3177 ft | 175 kts | 280° |
| 2026-05-03 23:59 | 43.68154 | -79.73729 | 3560 ft | 183 kts | 282° |
| 2026-05-03 23:59 | 43.68461 | -79.75465 | 3947 ft | 190 kts | 279° |
| 2026-05-04 00:00 | 43.68733 | -79.77267 | 4295 ft | 196 kts | 272° |
| 2026-05-04 00:00 | 43.68348 | -79.79094 | 4665 ft | 204 kts | 241° |
| 2026-05-04 00:00 | 43.67526 | -79.80705 | 5064 ft | 208 kts | 239° |
| 2026-05-04 00:00 | 43.66672 | -79.82334 | 5421 ft | 213 kts | 239° |
| 2026-05-04 00:01 | 43.65789 | -79.83988 | 5789 ft | 216 kts | 237° |
| 2026-05-04 00:01 | 43.64904 | -79.85663 | 6152 ft | 220 kts | 239° |
| 2026-05-04 00:01 | 43.63983 | -79.87369 | 6518 ft | 223 kts | 238° |
| 2026-05-04 00:01 | 43.63049 | -79.89093 | 6891 ft | 225 kts | 237° |
| 2026-05-04 00:02 | 43.62135 | -79.90826 | 7247 ft | 227 kts | 240° |
| 2026-05-04 00:02 | 43.61171 | -79.92597 | 7605 ft | 231 kts | 238° |
| 2026-05-04 00:02 | 43.60218 | -79.94352 | 7965 ft | 232 kts | 238° |
| 2026-05-04 00:02 | 43.59244 | -79.96153 | 8326 ft | 235 kts | 240° |
| 2026-05-04 00:03 | 43.58237 | -79.97953 | 8685 ft | 237 kts | 237° |
| 2026-05-04 00:03 | 43.57245 | -79.99751 | 9035 ft | 233 kts | 238° |
| 2026-05-04 00:03 | 43.56296 | -80.01503 | 9358 ft | 222 kts | 242° |
| 2026-05-04 00:03 | 43.55510 | -80.03259 | 9621 ft | 214 kts | 246° |
| 2026-05-04 00:04 | 43.54765 | -80.05009 | 9942 ft | 205 kts | 246° |
| 2026-05-04 00:04 | 43.54064 | -80.06649 | 10270 ft | 196 kts | 246° |
| 2026-05-04 00:04 | 43.53388 | -80.08223 | 10603 ft | 187 kts | 247° |
| 2026-05-04 00:04 | 43.52748 | -80.09703 | 10920 ft | 175 kts | 246° |
| 2026-05-04 00:05 | 43.52141 | -80.11101 | 11232 ft | 162 kts | 246° |
| 2026-05-04 00:05 | 43.51589 | -80.12373 | 11516 ft | 148 kts | 248° |
| 2026-05-04 00:05 | 43.51092 | -80.13515 | 11767 ft | 136 kts | 249° |
| 2026-05-04 00:05 | 43.50621 | -80.14642 | 12131 ft | 134 kts | 249° |
| 2026-05-04 00:06 | 43.50158 | -80.15757 | 12310 ft | 136 kts | 247° |
| 2026-05-04 00:06 | 43.49651 | -80.16930 | 12073 ft | 142 kts | 247° |
| 2026-05-04 00:06 | 43.49153 | -80.18067 | 12182 ft | 147 kts | 247° |
| 2026-05-04 00:06 | 43.48611 | -80.19365 | 12230 ft | 169 kts | 246° |
| 2026-05-04 00:07 | 43.47969 | -80.20870 | 12220 ft | 195 kts | 245° |
| 2026-05-04 00:07 | 43.47238 | -80.22543 | 12201 ft | 208 kts | 245° |
| 2026-05-04 00:07 | 43.46471 | -80.24262 | 12179 ft | 215 kts | 244° |
| 2026-05-04 00:07 | 43.45687 | -80.26025 | 12171 ft | 220 kts | 244° |
| 2026-05-04 00:08 | 43.44878 | -80.27844 | 12173 ft | 225 kts | 244° |
| 2026-05-04 00:08 | 43.44067 | -80.29667 | 12165 ft | 217 kts | 244° |
| 2026-05-04 00:08 | 43.43288 | -80.31403 | 12159 ft | 209 kts | 244° |
| 2026-05-04 00:08 | 43.42544 | -80.33070 | 12155 ft | 200 kts | 245° |
| 2026-05-04 00:09 | 43.41837 | -80.34658 | 12157 ft | 192 kts | 244° |
| 2026-05-04 00:09 | 43.41157 | -80.36189 | 12148 ft | 183 kts | 245° |
| 2026-05-04 00:09 | 43.40515 | -80.37637 | 12156 ft | 173 kts | 246° |
| 2026-05-04 00:09 | 43.39905 | -80.39009 | 12149 ft | 163 kts | 245° |
| 2026-05-04 00:10 | 43.39331 | -80.40301 | 12143 ft | 152 kts | 246° |
| 2026-05-04 00:10 | 43.38806 | -80.41484 | 12131 ft | 139 kts | 248° |
| 2026-05-04 00:10 | 43.38298 | -80.42685 | 12188 ft | 156 kts | 249° |
| 2026-05-04 00:10 | 43.37710 | -80.44096 | 12204 ft | 181 kts | 247° |
| 2026-05-04 00:11 | 43.37034 | -80.45672 | 12124 ft | 200 kts | 245° |
| 2026-05-04 00:11 | 43.36324 | -80.47234 | 12103 ft | 183 kts | 245° |
| 2026-05-04 00:11 | 43.35659 | -80.48689 | 11753 ft | 181 kts | 245° |
| 2026-05-04 00:11 | 43.34992 | -80.50171 | 11325 ft | 182 kts | 245° |
| 2026-05-04 00:12 | 43.34333 | -80.51644 | 10894 ft | 182 kts | 245° |
| 2026-05-04 00:12 | 43.33676 | -80.53115 | 10472 ft | 183 kts | 245° |
| 2026-05-04 00:12 | 43.33011 | -80.54608 | 10040 ft | 185 kts | 245° |
| 2026-05-04 00:12 | 43.32339 | -80.56121 | 9607 ft | 186 kts | 245° |
| 2026-05-04 00:13 | 43.31662 | -80.57645 | 9175 ft | 187 kts | 245° |
| 2026-05-04 00:13 | 43.30990 | -80.59155 | 8751 ft | 188 kts | 245° |
| 2026-05-04 00:13 | 43.30308 | -80.60691 | 8319 ft | 190 kts | 245° |
| 2026-05-04 00:13 | 43.29614 | -80.62249 | 7883 ft | 191 kts | 244° |
| 2026-05-04 00:14 | 43.28925 | -80.63799 | 7453 ft | 192 kts | 245° |
| 2026-05-04 00:14 | 43.28229 | -80.65363 | 7021 ft | 193 kts | 243° |
| 2026-05-04 00:14 | 43.27530 | -80.66932 | 6596 ft | 193 kts | 243° |
| 2026-05-04 00:14 | 43.26826 | -80.68514 | 6160 ft | 195 kts | 242° |
| 2026-05-04 00:15 | 43.26129 | -80.70079 | 5738 ft | 196 kts | 243° |
| 2026-05-04 00:15 | 43.25417 | -80.71683 | 5321 ft | 199 kts | 242° |
| 2026-05-04 00:15 | 43.24707 | -80.73274 | 5143 ft | 191 kts | 243° |
| 2026-05-04 00:15 | 43.24028 | -80.74785 | 5089 ft | 185 kts | 241° |
| 2026-05-04 00:16 | 43.23342 | -80.76340 | 5075 ft | 189 kts | 243° |
| 2026-05-04 00:16 | 43.22692 | -80.77779 | 5043 ft | 168 kts | 242° |
| 2026-05-04 00:16 | 43.22107 | -80.79062 | 5031 ft | 149 kts | 243° |
| 2026-05-04 00:16 | 43.21580 | -80.80241 | 5068 ft | 145 kts | 244° |
| 2026-05-04 00:17 | 43.21045 | -80.81477 | 5088 ft | 156 kts | 244° |
| 2026-05-04 00:17 | 43.20490 | -80.82737 | 5057 ft | 148 kts | 241° |
| 2026-05-04 00:17 | 43.19969 | -80.83875 | 5043 ft | 130 kts | 241° |
| 2026-05-04 00:17 | 43.19520 | -80.84862 | 5030 ft | 120 kts | 245° |
| 2026-05-04 00:18 | 43.19076 | -80.85901 | 5083 ft | 137 kts | 244° |
| 2026-05-04 00:18 | 43.18556 | -80.87112 | 5091 ft | 156 kts | 243° |
| 2026-05-04 00:18 | 43.17970 | -80.88453 | 5093 ft | 172 kts | 244° |
| 2026-05-04 00:18 | 43.17334 | -80.89880 | 5086 ft | 182 kts | 243° |
| 2026-05-04 00:19 | 43.16648 | -80.91406 | 5087 ft | 190 kts | 242° |
| 2026-05-04 00:19 | 43.15913 | -80.92910 | 5062 ft | 191 kts | 233° |
| 2026-05-04 00:19 | 43.14720 | -80.93625 | 4998 ft | 192 kts | 191° |
| 2026-05-04 00:19 | 43.13448 | -80.93372 | 5017 ft | 174 kts | 179° |
| 2026-05-04 00:20 | 43.12347 | -80.93060 | 5002 ft | 151 kts | 180° |
| 2026-05-04 00:20 | 43.11328 | -80.92791 | 5004 ft | 143 kts | 183° |
| 2026-05-04 00:20 | 43.10405 | -80.92548 | 5006 ft | 131 kts | 184° |
| 2026-05-04 00:20 | 43.09520 | -80.92337 | 5085 ft | 129 kts | 185° |
| 2026-05-04 00:21 | 43.08599 | -80.92134 | 5060 ft | 133 kts | 185° |
| 2026-05-04 00:21 | 43.07835 | -80.92296 | 4858 ft | 101 kts | 238° |
| 2026-05-04 00:21 | 43.07517 | -80.93124 | 4642 ft | 85 kts | 256° |
| 2026-05-04 00:21 | 43.07336 | -80.93792 | 4541 ft | 80 kts | 258° |
| 2026-05-04 00:22 | 43.07175 | -80.94552 | 4498 ft | 86 kts | 257° |
| 2026-05-04 00:22 | 43.07008 | -80.95434 | 4387 ft | 107 kts | 258° |
| 2026-05-04 00:22 | 43.06820 | -80.96472 | 4172 ft | 116 kts | 256° |
| 2026-05-04 00:22 | 43.06622 | -80.97568 | 3877 ft | 122 kts | 259° |
| 2026-05-04 00:23 | 43.06424 | -80.98729 | 3610 ft | 126 kts | 259° |
| 2026-05-04 00:23 | 43.06237 | -80.99869 | 3282 ft | 123 kts | 258° |
| 2026-05-04 00:23 | 43.06060 | -81.00993 | 2951 ft | 120 kts | 258° |
| 2026-05-04 00:23 | 43.05888 | -81.02090 | 2614 ft | 116 kts | 259° |
| 2026-05-04 00:24 | 43.05719 | -81.03113 | 2314 ft | 105 kts | 258° |
| 2026-05-04 00:24 | 43.05559 | -81.04084 | 2045 ft | 104 kts | 256° |
| 2026-05-04 00:24 | 43.05427 | -81.05035 | 1880 ft | 102 kts | 259° |
| 2026-05-04 00:24 | 43.05277 | -81.05980 | 1791 ft | 102 kts | 256° |
| 2026-05-04 00:25 | 43.05116 | -81.06918 | 1710 ft | 103 kts | 256° |
| 2026-05-04 00:25 | 43.04967 | -81.07880 | 1705 ft | 104 kts | 255° |
| 2026-05-04 00:25 | 43.04850 | -81.08835 | 1563 ft | 99 kts | 255° |
| 2026-05-04 00:25 | 43.04726 | -81.09818 | 1530 ft | 107 kts | 255° |
| 2026-05-04 00:26 | 43.04569 | -81.10840 | 1419 ft | 106 kts | 257° |
| 2026-05-04 00:26 | 43.04431 | -81.11832 | 1308 ft | 110 kts | 256° |
| 2026-05-04 00:26 | 43.04298 | -81.12856 | 1142 ft | 111 kts | 256° |
| 2026-05-04 00:26 | 43.04155 | -81.13878 | 974 ft | 104 kts | 253° |
| 2026-05-04 00:27 | 43.04033 | -81.14715 | 916 ft | 64 kts | 260° |
| 2026-05-04 00:27 | 43.03976 | -81.15124 | 917 ft | 33 kts | 260° |
| 2026-05-04 00:27 | 43.03939 | -81.15414 | 918 ft | 33 kts | 259° |
| 2026-05-04 00:27 | 43.03892 | -81.15737 | 917 ft | 29 kts | 259° |
| 2026-05-04 00:28 | 43.03831 | -81.15842 | 916 ft | 10 kts | 159° |
| 2026-05-04 00:28 | 43.03775 | -81.15778 | 916 ft | 11 kts | 137° |
| 2026-05-04 00:28 | 43.03751 | -81.15748 | 916 ft | 0 kts | 140° |
| 2026-05-04 00:28 | 43.03750 | -81.15747 | 916 ft | 0 kts | 140° |
| 2026-05-04 00:29 | 43.03750 | -81.15746 | 916 ft | 0 kts | 140° |
| 2026-05-04 00:29 | 43.03715 | -81.15705 | 916 ft | 14 kts | 139° |
| 2026-05-04 00:29 | 43.03617 | -81.15588 | 916 ft | 18 kts | 139° |
| 2026-05-04 00:30 | 43.03525 | -81.15471 | 915 ft | 17 kts | 133° |
| 2026-05-04 00:30 | 43.03437 | -81.15369 | 914 ft | 16 kts | 141° |
| 2026-05-04 00:30 | 43.03350 | -81.15265 | 913 ft | 16 kts | 139° |
| 2026-05-04 00:30 | 43.03259 | -81.15158 | 912 ft | 19 kts | 139° |
| 2026-05-04 00:31 | 43.03146 | -81.15022 | 911 ft | 21 kts | 139° |
| 2026-05-04 00:31 | 43.03032 | -81.14886 | 910 ft | 21 kts | 138° |
| 2026-05-04 00:31 | 43.02954 | -81.14790 | 910 ft | 10 kts | 138° |
| 2026-05-04 00:31 | 43.02902 | -81.14743 | 910 ft | 7 kts | 192° |
| 2026-05-04 00:32 | 43.02887 | -81.14779 | 910 ft | 1 kts | 270° |
| 2026-05-04 00:32 | 43.02889 | -81.14800 | 910 ft | 1 kts | 273° |
| 2026-05-04 00:32 | 43.02889 | -81.14806 | 910 ft | 0 kts | 275° |